sensor_id;sensor_type;location;lat;lon;timestamp;pressure;altitude;pressure_sealevel;temperature;humidity
60611;BME280;46439;51.164;13.572;2023-07-29T00:00:09;99526.86;;;22.48;100.00
60611;BME280;46439;51.164;13.572;2023-07-29T00:02:38;99525.31;;;22.43;100.00
60611;BME280;46439;51.164;13.572;2023-07-29T00:05:08;99526.52;;;22.43;100.00
60611;BME280;46439;51.164;13.572;2023-07-29T00:07:36;99527.78;;;22.43;100.00
60611;BME280;46439;51.164;13.572;2023-07-29T00:10:07;99523.54;;;22.42;100.00
60611;BME280;46439;51.164;13.572;2023-07-29T00:12:35;99522.77;;;22.41;100.00
60611;BME280;46439;51.164;13.572;2023-07-29T00:15:05;99525.99;;;22.37;100.00
60611;BME280;46439;51.164;13.572;2023-07-29T00:17:34;99526.21;;;22.34;100.00
60611;BME280;46439;51.164;13.572;2023-07-29T00:20:03;99523.58;;;22.28;100.00
60611;BME280;46439;51.164;13.572;2023-07-29T00:22:31;99522.08;;;22.26;100.00
60611;BME280;46439;51.164;13.572;2023-07-29T00:25:00;99519.29;;;22.25;100.00
60611;BME280;46439;51.164;13.572;2023-07-29T00:27:28;99515.88;;;22.22;100.00
60611;BME280;46439;51.164;13.572;2023-07-29T00:29:56;99516.35;;;22.19;100.00
60611;BME280;46439;51.164;13.572;2023-07-29T00:32:25;99510.11;;;22.16;100.00
60611;BME280;46439;51.164;13.572;2023-07-29T00:34:53;99510.76;;;22.12;100.00
60611;BME280;46439;51.164;13.572;2023-07-29T00:37:22;99506.09;;;22.12;100.00
60611;BME280;46439;51.164;13.572;2023-07-29T00:39:50;99503.48;;;22.07;100.00
60611;BME280;46439;51.164;13.572;2023-07-29T00:42:19;99496.93;;;22.07;100.00
60611;BME280;46439;51.164;13.572;2023-07-29T00:44:47;99496.13;;;22.02;100.00
60611;BME280;46439;51.164;13.572;2023-07-29T00:47:16;99495.02;;;21.98;100.00
60611;BME280;46439;51.164;13.572;2023-07-29T00:49:46;99496.34;;;21.92;100.00
60611;BME280;46439;51.164;13.572;2023-07-29T00:52:15;99498.30;;;21.89;100.00
60611;BME280;46439;51.164;13.572;2023-07-29T00:54:44;99501.44;;;21.89;100.00
60611;BME280;46439;51.164;13.572;2023-07-29T00:57:14;99503.73;;;21.90;100.00
60611;BME280;46439;51.164;13.572;2023-07-29T00:59:43;99501.50;;;21.90;100.00
60611;BME280;46439;51.164;13.572;2023-07-29T01:02:12;99499.67;;;21.90;100.00
60611;BME280;46439;51.164;13.572;2023-07-29T01:04:40;99498.69;;;21.89;100.00
60611;BME280;46439;51.164;13.572;2023-07-29T01:07:17;99490.49;;;21.89;100.00
60611;BME280;46439;51.164;13.572;2023-07-29T01:09:55;99493.10;;;21.83;100.00
60611;BME280;46439;51.164;13.572;2023-07-29T01:12:42;99494.24;;;21.81;100.00
60611;BME280;46439;51.164;13.572;2023-07-29T01:15:18;99491.09;;;21.79;100.00
60611;BME280;46439;51.164;13.572;2023-07-29T01:17:54;99492.95;;;21.80;100.00
60611;BME280;46439;51.164;13.572;2023-07-29T01:20:25;99491.93;;;21.82;100.00
60611;BME280;46439;51.164;13.572;2023-07-29T01:22:54;99489.45;;;21.80;100.00
60611;BME280;46439;51.164;13.572;2023-07-29T01:25:22;99492.02;;;21.78;100.00
60611;BME280;46439;51.164;13.572;2023-07-29T01:27:51;99488.21;;;21.77;100.00
60611;BME280;46439;51.164;13.572;2023-07-29T01:30:21;99483.64;;;21.82;100.00
60611;BME280;46439;51.164;13.572;2023-07-29T01:32:54;99486.56;;;21.83;100.00
60611;BME280;46439;51.164;13.572;2023-07-29T01:35:31;99480.71;;;21.81;100.00
60611;BME280;46439;51.164;13.572;2023-07-29T01:38:04;99487.81;;;21.80;100.00
60611;BME280;46439;51.164;13.572;2023-07-29T01:40:34;99487.20;;;21.79;100.00
60611;BME280;46439;51.164;13.572;2023-07-29T01:43:12;99485.35;;;21.75;100.00
60611;BME280;46439;51.164;13.572;2023-07-29T01:45:41;99489.52;;;21.73;100.00
60611;BME280;46439;51.164;13.572;2023-07-29T01:48:10;99490.33;;;21.72;100.00
60611;BME280;46439;51.164;13.572;2023-07-29T01:50:39;99485.10;;;21.70;100.00
60611;BME280;46439;51.164;13.572;2023-07-29T01:53:07;99482.89;;;21.68;100.00
60611;BME280;46439;51.164;13.572;2023-07-29T01:55:35;99483.40;;;21.72;100.00
60611;BME280;46439;51.164;13.572;2023-07-29T01:58:04;99486.65;;;21.72;100.00
60611;BME280;46439;51.164;13.572;2023-07-29T02:00:32;99482.66;;;21.67;100.00
60611;BME280;46439;51.164;13.572;2023-07-29T02:03:01;99482.60;;;21.66;100.00
60611;BME280;46439;51.164;13.572;2023-07-29T02:05:29;99484.98;;;21.63;100.00
60611;BME280;46439;51.164;13.572;2023-07-29T02:07:58;99485.75;;;21.62;100.00
60611;BME280;46439;51.164;13.572;2023-07-29T02:10:26;99483.89;;;21.62;100.00
60611;BME280;46439;51.164;13.572;2023-07-29T02:12:54;99484.28;;;21.63;100.00
60611;BME280;46439;51.164;13.572;2023-07-29T02:15:23;99481.23;;;21.61;100.00
60611;BME280;46439;51.164;13.572;2023-07-29T02:17:51;99480.98;;;21.59;100.00
60611;BME280;46439;51.164;13.572;2023-07-29T02:20:20;99482.31;;;21.59;100.00
60611;BME280;46439;51.164;13.572;2023-07-29T02:22:48;99480.83;;;21.59;100.00
60611;BME280;46439;51.164;13.572;2023-07-29T02:25:17;99480.17;;;21.59;100.00
60611;BME280;46439;51.164;13.572;2023-07-29T02:27:46;99484.41;;;21.52;100.00
60611;BME280;46439;51.164;13.572;2023-07-29T02:30:14;99488.16;;;21.38;100.00
60611;BME280;46439;51.164;13.572;2023-07-29T02:32:42;99489.23;;;21.29;100.00
60611;BME280;46439;51.164;13.572;2023-07-29T02:35:11;99490.95;;;21.36;100.00
60611;BME280;46439;51.164;13.572;2023-07-29T02:37:40;99489.02;;;21.42;100.00
60611;BME280;46439;51.164;13.572;2023-07-29T02:40:11;99489.23;;;21.43;100.00
60611;BME280;46439;51.164;13.572;2023-07-29T02:42:39;99498.67;;;21.41;100.00
60611;BME280;46439;51.164;13.572;2023-07-29T02:45:09;99504.75;;;21.40;100.00
60611;BME280;46439;51.164;13.572;2023-07-29T02:47:39;99507.05;;;21.21;100.00
60611;BME280;46439;51.164;13.572;2023-07-29T02:50:09;99506.36;;;21.28;100.00
60611;BME280;46439;51.164;13.572;2023-07-29T02:52:38;99509.33;;;21.28;100.00
60611;BME280;46439;51.164;13.572;2023-07-29T02:55:08;99510.41;;;21.28;100.00
60611;BME280;46439;51.164;13.572;2023-07-29T02:57:36;99514.17;;;21.24;100.00
60611;BME280;46439;51.164;13.572;2023-07-29T03:00:07;99517.39;;;21.22;100.00
60611;BME280;46439;51.164;13.572;2023-07-29T03:02:36;99515.73;;;21.15;100.00
60611;BME280;46439;51.164;13.572;2023-07-29T03:05:05;99518.91;;;21.09;100.00
60611;BME280;46439;51.164;13.572;2023-07-29T03:07:34;99521.67;;;20.90;100.00
60611;BME280;46439;51.164;13.572;2023-07-29T03:10:02;99517.80;;;20.77;100.00
60611;BME280;46439;51.164;13.572;2023-07-29T03:12:31;99519.15;;;20.75;100.00
60611;BME280;46439;51.164;13.572;2023-07-29T03:14:59;99519.47;;;20.75;100.00
60611;BME280;46439;51.164;13.572;2023-07-29T03:17:29;99525.35;;;20.86;100.00
60611;BME280;46439;51.164;13.572;2023-07-29T03:19:57;99516.91;;;20.96;100.00
60611;BME280;46439;51.164;13.572;2023-07-29T03:22:26;99518.86;;;20.95;100.00
60611;BME280;46439;51.164;13.572;2023-07-29T03:24:54;99519.04;;;20.95;100.00
60611;BME280;46439;51.164;13.572;2023-07-29T03:27:23;99518.03;;;20.98;100.00
60611;BME280;46439;51.164;13.572;2023-07-29T03:29:51;99513.33;;;21.00;100.00
60611;BME280;46439;51.164;13.572;2023-07-29T03:32:20;99508.38;;;20.99;100.00
60611;BME280;46439;51.164;13.572;2023-07-29T03:34:48;99507.39;;;20.89;100.00
60611;BME280;46439;51.164;13.572;2023-07-29T03:37:17;99505.33;;;20.91;100.00
60611;BME280;46439;51.164;13.572;2023-07-29T03:39:45;99505.31;;;20.98;100.00
60611;BME280;46439;51.164;13.572;2023-07-29T03:42:14;99501.25;;;21.05;100.00
60611;BME280;46439;51.164;13.572;2023-07-29T03:44:42;99498.90;;;21.11;100.00
60611;BME280;46439;51.164;13.572;2023-07-29T03:47:11;99493.57;;;21.17;100.00
60611;BME280;46439;51.164;13.572;2023-07-29T03:49:39;99492.34;;;21.20;100.00
60611;BME280;46439;51.164;13.572;2023-07-29T03:52:08;99493.54;;;21.25;100.00
60611;BME280;46439;51.164;13.572;2023-07-29T03:54:37;99493.13;;;21.28;100.00
60611;BME280;46439;51.164;13.572;2023-07-29T03:57:06;99495.98;;;21.33;100.00
60611;BME280;46439;51.164;13.572;2023-07-29T03:59:35;99498.58;;;21.36;100.00
60611;BME280;46439;51.164;13.572;2023-07-29T04:02:04;99497.95;;;21.34;100.00
60611;BME280;46439;51.164;13.572;2023-07-29T04:04:33;99498.56;;;21.35;100.00
60611;BME280;46439;51.164;13.572;2023-07-29T04:07:01;99504.47;;;21.32;100.00
60611;BME280;46439;51.164;13.572;2023-07-29T04:09:30;99504.30;;;21.38;100.00
60611;BME280;46439;51.164;13.572;2023-07-29T04:11:58;99509.11;;;21.41;100.00
60611;BME280;46439;51.164;13.572;2023-07-29T04:14:27;99510.57;;;21.44;100.00
60611;BME280;46439;51.164;13.572;2023-07-29T04:16:55;99512.67;;;21.50;100.00
60611;BME280;46439;51.164;13.572;2023-07-29T04:19:24;99510.90;;;21.53;100.00
60611;BME280;46439;51.164;13.572;2023-07-29T04:21:53;99511.59;;;21.58;100.00
60611;BME280;46439;51.164;13.572;2023-07-29T04:24:21;99510.62;;;21.59;100.00
60611;BME280;46439;51.164;13.572;2023-07-29T04:26:51;99498.70;;;21.60;100.00
60611;BME280;46439;51.164;13.572;2023-07-29T04:29:20;99499.27;;;21.63;100.00
60611;BME280;46439;51.164;13.572;2023-07-29T04:31:48;99503.19;;;21.64;100.00
60611;BME280;46439;51.164;13.572;2023-07-29T04:34:17;99504.73;;;21.65;100.00
60611;BME280;46439;51.164;13.572;2023-07-29T04:36:46;99503.77;;;21.68;100.00
60611;BME280;46439;51.164;13.572;2023-07-29T04:39:15;99503.29;;;21.71;100.00
60611;BME280;46439;51.164;13.572;2023-07-29T04:41:43;99507.02;;;21.57;100.00
60611;BME280;46439;51.164;13.572;2023-07-29T04:44:12;99507.77;;;21.51;100.00
60611;BME280;46439;51.164;13.572;2023-07-29T04:46:41;99506.06;;;21.51;100.00
60611;BME280;46439;51.164;13.572;2023-07-29T04:49:09;99504.92;;;21.68;100.00
60611;BME280;46439;51.164;13.572;2023-07-29T04:51:37;99502.65;;;21.74;100.00
60611;BME280;46439;51.164;13.572;2023-07-29T04:54:06;99506.19;;;21.78;100.00
60611;BME280;46439;51.164;13.572;2023-07-29T04:56:34;99503.20;;;21.82;100.00
60611;BME280;46439;51.164;13.572;2023-07-29T04:59:03;99499.67;;;21.80;100.00
60611;BME280;46439;51.164;13.572;2023-07-29T05:01:32;99495.61;;;21.90;100.00
60611;BME280;46439;51.164;13.572;2023-07-29T05:04:01;99493.36;;;21.98;100.00
60611;BME280;46439;51.164;13.572;2023-07-29T05:06:30;99493.73;;;22.05;100.00
60611;BME280;46439;51.164;13.572;2023-07-29T05:08:59;99494.58;;;22.10;100.00
60611;BME280;46439;51.164;13.572;2023-07-29T05:11:38;99490.32;;;22.14;100.00
60611;BME280;46439;51.164;13.572;2023-07-29T05:14:08;99489.39;;;22.16;100.00
60611;BME280;46439;51.164;13.572;2023-07-29T05:16:37;99491.85;;;22.13;100.00
60611;BME280;46439;51.164;13.572;2023-07-29T05:19:06;99491.25;;;22.14;100.00
60611;BME280;46439;51.164;13.572;2023-07-29T05:21:35;99489.95;;;22.18;100.00
60611;BME280;46439;51.164;13.572;2023-07-29T05:24:04;99488.50;;;22.23;100.00
60611;BME280;46439;51.164;13.572;2023-07-29T05:26:34;99489.63;;;22.26;100.00
60611;BME280;46439;51.164;13.572;2023-07-29T05:29:02;99481.52;;;22.30;100.00
60611;BME280;46439;51.164;13.572;2023-07-29T05:31:32;99480.30;;;22.28;100.00
60611;BME280;46439;51.164;13.572;2023-07-29T05:34:00;99475.70;;;22.32;100.00
60611;BME280;46439;51.164;13.572;2023-07-29T05:36:29;99471.23;;;22.32;100.00
60611;BME280;46439;51.164;13.572;2023-07-29T05:38:58;99474.02;;;22.36;100.00
60611;BME280;46439;51.164;13.572;2023-07-29T05:41:27;99474.10;;;22.45;100.00
60611;BME280;46439;51.164;13.572;2023-07-29T05:43:57;99474.23;;;22.48;100.00
60611;BME280;46439;51.164;13.572;2023-07-29T05:46:25;99466.48;;;22.54;100.00
60611;BME280;46439;51.164;13.572;2023-07-29T05:48:54;99460.61;;;22.43;100.00
60611;BME280;46439;51.164;13.572;2023-07-29T05:51:23;99462.21;;;22.41;100.00
60611;BME280;46439;51.164;13.572;2023-07-29T05:53:51;99462.55;;;22.61;100.00
60611;BME280;46439;51.164;13.572;2023-07-29T05:56:20;99459.90;;;22.73;100.00
60611;BME280;46439;51.164;13.572;2023-07-29T05:58:48;99457.15;;;22.74;100.00
60611;BME280;46439;51.164;13.572;2023-07-29T06:01:18;99458.80;;;22.76;100.00
60611;BME280;46439;51.164;13.572;2023-07-29T06:03:49;99462.88;;;22.78;100.00
60611;BME280;46439;51.164;13.572;2023-07-29T06:06:18;99463.21;;;22.85;100.00
60611;BME280;46439;51.164;13.572;2023-07-29T06:08:47;99457.02;;;22.91;100.00
60611;BME280;46439;51.164;13.572;2023-07-29T06:11:15;99453.89;;;22.98;100.00
60611;BME280;46439;51.164;13.572;2023-07-29T06:13:43;99457.56;;;23.05;100.00
60611;BME280;46439;51.164;13.572;2023-07-29T06:16:12;99454.44;;;23.12;100.00
60611;BME280;46439;51.164;13.572;2023-07-29T06:18:40;99458.30;;;23.18;100.00
60611;BME280;46439;51.164;13.572;2023-07-29T06:21:09;99458.73;;;23.23;100.00
60611;BME280;46439;51.164;13.572;2023-07-29T06:23:40;99458.80;;;23.29;100.00
60611;BME280;46439;51.164;13.572;2023-07-29T06:26:09;99457.20;;;23.36;100.00
60611;BME280;46439;51.164;13.572;2023-07-29T06:28:37;99459.30;;;23.44;100.00
60611;BME280;46439;51.164;13.572;2023-07-29T06:31:06;99463.36;;;23.53;100.00
60611;BME280;46439;51.164;13.572;2023-07-29T06:33:34;99466.98;;;23.59;100.00
60611;BME280;46439;51.164;13.572;2023-07-29T06:36:03;99471.39;;;23.65;100.00
60611;BME280;46439;51.164;13.572;2023-07-29T06:38:32;99475.76;;;23.67;100.00
60611;BME280;46439;51.164;13.572;2023-07-29T06:41:01;99475.36;;;23.69;100.00
60611;BME280;46439;51.164;13.572;2023-07-29T06:43:29;99475.73;;;23.72;100.00
60611;BME280;46439;51.164;13.572;2023-07-29T06:45:58;99481.20;;;23.73;100.00
60611;BME280;46439;51.164;13.572;2023-07-29T06:48:26;99474.75;;;23.75;100.00
60611;BME280;46439;51.164;13.572;2023-07-29T06:50:55;99473.65;;;23.76;100.00
60611;BME280;46439;51.164;13.572;2023-07-29T06:53:28;99470.61;;;23.78;100.00
60611;BME280;46439;51.164;13.572;2023-07-29T06:55:57;99471.85;;;23.82;100.00
60611;BME280;46439;51.164;13.572;2023-07-29T06:58:25;99468.87;;;23.85;100.00
60611;BME280;46439;51.164;13.572;2023-07-29T07:00:54;99468.36;;;23.88;100.00
60611;BME280;46439;51.164;13.572;2023-07-29T07:03:22;99467.23;;;23.98;100.00
60611;BME280;46439;51.164;13.572;2023-07-29T07:05:51;99463.70;;;24.06;100.00
60611;BME280;46439;51.164;13.572;2023-07-29T07:08:20;99465.36;;;24.15;100.00
60611;BME280;46439;51.164;13.572;2023-07-29T07:10:49;99462.53;;;24.21;100.00
60611;BME280;46439;51.164;13.572;2023-07-29T07:13:18;99466.20;;;24.26;100.00
60611;BME280;46439;51.164;13.572;2023-07-29T07:15:46;99470.73;;;24.27;100.00
60611;BME280;46439;51.164;13.572;2023-07-29T07:18:15;99465.55;;;24.29;100.00
60611;BME280;46439;51.164;13.572;2023-07-29T07:20:43;99459.58;;;24.31;100.00
60611;BME280;46439;51.164;13.572;2023-07-29T07:23:12;99459.95;;;24.31;100.00
60611;BME280;46439;51.164;13.572;2023-07-29T07:25:41;99456.20;;;24.32;100.00
60611;BME280;46439;51.164;13.572;2023-07-29T07:28:12;99452.11;;;24.34;100.00
60611;BME280;46439;51.164;13.572;2023-07-29T07:30:42;99446.14;;;24.37;100.00
60611;BME280;46439;51.164;13.572;2023-07-29T07:33:10;99435.66;;;24.49;100.00
60611;BME280;46439;51.164;13.572;2023-07-29T07:35:39;99437.48;;;24.64;100.00
60611;BME280;46439;51.164;13.572;2023-07-29T07:38:08;99428.30;;;24.76;100.00
60611;BME280;46439;51.164;13.572;2023-07-29T07:40:38;99419.90;;;24.86;100.00
60611;BME280;46439;51.164;13.572;2023-07-29T07:43:06;99421.01;;;24.94;100.00
60611;BME280;46439;51.164;13.572;2023-07-29T07:45:35;99415.73;;;24.98;100.00
60611;BME280;46439;51.164;13.572;2023-07-29T07:48:04;99412.76;;;25.04;100.00
60611;BME280;46439;51.164;13.572;2023-07-29T07:50:33;99419.34;;;25.10;100.00
60611;BME280;46439;51.164;13.572;2023-07-29T07:53:01;99415.58;;;25.18;100.00
60611;BME280;46439;51.164;13.572;2023-07-29T07:55:30;99411.13;;;25.25;100.00
60611;BME280;46439;51.164;13.572;2023-07-29T07:57:58;99405.91;;;25.28;100.00
60611;BME280;46439;51.164;13.572;2023-07-29T08:00:26;99402.27;;;25.40;100.00
60611;BME280;46439;51.164;13.572;2023-07-29T08:02:55;99401.70;;;25.47;100.00
60611;BME280;46439;51.164;13.572;2023-07-29T08:05:23;99397.30;;;25.56;100.00
60611;BME280;46439;51.164;13.572;2023-07-29T08:07:52;99393.81;;;25.62;100.00
60611;BME280;46439;51.164;13.572;2023-07-29T08:10:20;99391.86;;;25.69;100.00
60611;BME280;46439;51.164;13.572;2023-07-29T08:12:49;99392.13;;;25.76;100.00
60611;BME280;46439;51.164;13.572;2023-07-29T08:15:18;99382.77;;;25.86;100.00
60611;BME280;46439;51.164;13.572;2023-07-29T08:17:47;99375.14;;;25.97;100.00
60611;BME280;46439;51.164;13.572;2023-07-29T08:20:15;99376.27;;;26.05;100.00
60611;BME280;46439;51.164;13.572;2023-07-29T08:22:44;99377.13;;;26.11;100.00
60611;BME280;46439;51.164;13.572;2023-07-29T08:25:13;99375.55;;;26.13;100.00
60611;BME280;46439;51.164;13.572;2023-07-29T08:27:41;99375.25;;;26.20;100.00
60611;BME280;46439;51.164;13.572;2023-07-29T08:30:11;99377.23;;;26.24;100.00
60611;BME280;46439;51.164;13.572;2023-07-29T08:32:40;99384.41;;;26.26;100.00
60611;BME280;46439;51.164;13.572;2023-07-29T08:35:09;99380.69;;;26.23;100.00
60611;BME280;46439;51.164;13.572;2023-07-29T08:37:38;99377.99;;;26.25;100.00
60611;BME280;46439;51.164;13.572;2023-07-29T08:40:08;99381.79;;;26.26;100.00
60611;BME280;46439;51.164;13.572;2023-07-29T08:42:38;99379.40;;;26.29;100.00
60611;BME280;46439;51.164;13.572;2023-07-29T08:45:09;99385.23;;;26.31;100.00
60611;BME280;46439;51.164;13.572;2023-07-29T08:47:39;99388.52;;;26.36;100.00
60611;BME280;46439;51.164;13.572;2023-07-29T08:50:09;99388.98;;;26.36;100.00
60611;BME280;46439;51.164;13.572;2023-07-29T08:52:38;99391.73;;;26.38;100.00
60611;BME280;46439;51.164;13.572;2023-07-29T08:55:08;99393.18;;;26.37;100.00
60611;BME280;46439;51.164;13.572;2023-07-29T08:57:38;99392.57;;;26.36;100.00
60611;BME280;46439;51.164;13.572;2023-07-29T09:00:08;99395.27;;;26.42;100.00
60611;BME280;46439;51.164;13.572;2023-07-29T09:02:37;99394.22;;;26.49;100.00
60611;BME280;46439;51.164;13.572;2023-07-29T09:05:07;99389.95;;;26.58;100.00
60611;BME280;46439;51.164;13.572;2023-07-29T09:07:37;99390.34;;;26.67;100.00
60611;BME280;46439;51.164;13.572;2023-07-29T09:10:10;99385.30;;;26.78;100.00
60611;BME280;46439;51.164;13.572;2023-07-29T09:12:39;99386.55;;;26.83;100.00
60611;BME280;46439;51.164;13.572;2023-07-29T09:15:09;99388.35;;;26.89;100.00
60611;BME280;46439;51.164;13.572;2023-07-29T09:17:38;99386.73;;;26.89;100.00
60611;BME280;46439;51.164;13.572;2023-07-29T09:20:11;99391.88;;;26.93;100.00
60611;BME280;46439;51.164;13.572;2023-07-29T09:22:40;99393.14;;;27.00;100.00
60611;BME280;46439;51.164;13.572;2023-07-29T09:25:09;99389.74;;;27.02;100.00
60611;BME280;46439;51.164;13.572;2023-07-29T09:27:38;99385.91;;;27.00;100.00
60611;BME280;46439;51.164;13.572;2023-07-29T09:30:16;99382.52;;;27.07;100.00
60611;BME280;46439;51.164;13.572;2023-07-29T09:32:45;99384.34;;;27.13;100.00
60611;BME280;46439;51.164;13.572;2023-07-29T09:35:14;99387.70;;;27.22;100.00
60611;BME280;46439;51.164;13.572;2023-07-29T09:37:43;99381.77;;;27.29;100.00
60611;BME280;46439;51.164;13.572;2023-07-29T09:40:15;99382.95;;;27.36;100.00
60611;BME280;46439;51.164;13.572;2023-07-29T09:42:51;99379.33;;;27.40;100.00
60611;BME280;46439;51.164;13.572;2023-07-29T09:45:26;99379.56;;;27.41;100.00
60611;BME280;46439;51.164;13.572;2023-07-29T09:50:43;99381.17;;;27.46;100.00
60611;BME280;46439;51.164;13.572;2023-07-29T09:53:12;99375.98;;;27.53;100.00
60611;BME280;46439;51.164;13.572;2023-07-29T09:55:40;99370.57;;;27.61;100.00
60611;BME280;46439;51.164;13.572;2023-07-29T09:58:14;99367.97;;;27.72;100.00
60611;BME280;46439;51.164;13.572;2023-07-29T10:00:47;99367.06;;;27.78;100.00
60611;BME280;46439;51.164;13.572;2023-07-29T10:03:16;99364.40;;;27.79;100.00
60611;BME280;46439;51.164;13.572;2023-07-29T10:05:46;99365.42;;;27.86;100.00
60611;BME280;46439;51.164;13.572;2023-07-29T10:08:16;99361.58;;;27.90;100.00
60611;BME280;46439;51.164;13.572;2023-07-29T10:10:45;99364.17;;;27.87;100.00
60611;BME280;46439;51.164;13.572;2023-07-29T10:13:13;99363.94;;;27.85;100.00
60611;BME280;46439;51.164;13.572;2023-07-29T10:15:45;99364.84;;;27.76;100.00
60611;BME280;46439;51.164;13.572;2023-07-29T10:18:17;99359.70;;;27.66;100.00
60611;BME280;46439;51.164;13.572;2023-07-29T10:20:50;99354.58;;;27.58;100.00
60611;BME280;46439;51.164;13.572;2023-07-29T10:23:19;99350.39;;;27.57;100.00
60611;BME280;46439;51.164;13.572;2023-07-29T10:25:53;99349.17;;;27.57;100.00
60611;BME280;46439;51.164;13.572;2023-07-29T10:28:26;99346.98;;;27.58;100.00
60611;BME280;46439;51.164;13.572;2023-07-29T10:30:57;99347.46;;;27.60;100.00
60611;BME280;46439;51.164;13.572;2023-07-29T10:33:27;99353.73;;;27.63;100.00
60611;BME280;46439;51.164;13.572;2023-07-29T10:35:56;99356.05;;;27.63;100.00
60611;BME280;46439;51.164;13.572;2023-07-29T10:38:25;99355.70;;;27.58;100.00
60611;BME280;46439;51.164;13.572;2023-07-29T10:40:56;99354.39;;;27.57;100.00
60611;BME280;46439;51.164;13.572;2023-07-29T10:43:31;99357.76;;;27.57;100.00
60611;BME280;46439;51.164;13.572;2023-07-29T10:46:16;99355.13;;;27.58;100.00
60611;BME280;46439;51.164;13.572;2023-07-29T10:48:52;99356.52;;;27.59;100.00
60611;BME280;46439;51.164;13.572;2023-07-29T10:51:29;99355.07;;;27.53;100.00
60611;BME280;46439;51.164;13.572;2023-07-29T10:54:02;99352.77;;;27.46;100.00
60611;BME280;46439;51.164;13.572;2023-07-29T10:56:33;99352.66;;;27.43;100.00
60611;BME280;46439;51.164;13.572;2023-07-29T11:01:56;99348.75;;;27.47;100.00
60611;BME280;46439;51.164;13.572;2023-07-29T11:04:27;99343.25;;;27.45;100.00
60611;BME280;46439;51.164;13.572;2023-07-29T11:07:20;99340.77;;;27.50;100.00
60611;BME280;46439;51.164;13.572;2023-07-29T11:09:57;99337.24;;;27.47;100.00
60611;BME280;46439;51.164;13.572;2023-07-29T11:15:22;99331.15;;;27.52;100.00
60611;BME280;46439;51.164;13.572;2023-07-29T11:17:53;99334.30;;;27.43;100.00
60611;BME280;46439;51.164;13.572;2023-07-29T11:20:23;99341.42;;;27.42;100.00
60611;BME280;46439;51.164;13.572;2023-07-29T11:22:52;99337.64;;;27.34;100.00
60611;BME280;46439;51.164;13.572;2023-07-29T11:25:21;99338.98;;;27.20;100.00
60611;BME280;46439;51.164;13.572;2023-07-29T11:27:52;99333.52;;;27.14;100.00
60611;BME280;46439;51.164;13.572;2023-07-29T11:30:21;99330.14;;;27.15;100.00
60611;BME280;46439;51.164;13.572;2023-07-29T11:32:51;99327.20;;;27.17;100.00
60611;BME280;46439;51.164;13.572;2023-07-29T11:35:21;99326.71;;;27.17;100.00
60611;BME280;46439;51.164;13.572;2023-07-29T11:37:51;99323.29;;;27.17;100.00
60611;BME280;46439;51.164;13.572;2023-07-29T11:40:21;99322.04;;;27.22;100.00
60611;BME280;46439;51.164;13.572;2023-07-29T11:42:52;99321.73;;;27.17;100.00
60611;BME280;46439;51.164;13.572;2023-07-29T11:45:22;99319.36;;;27.11;100.00
60611;BME280;46439;51.164;13.572;2023-07-29T11:47:51;99318.95;;;27.12;100.00
60611;BME280;46439;51.164;13.572;2023-07-29T11:50:19;99317.33;;;27.12;100.00
60611;BME280;46439;51.164;13.572;2023-07-29T11:52:48;99316.22;;;27.06;100.00
60611;BME280;46439;51.164;13.572;2023-07-29T11:55:17;99316.94;;;26.99;100.00
60611;BME280;46439;51.164;13.572;2023-07-29T11:57:52;99314.87;;;26.94;100.00
60611;BME280;46439;51.164;13.572;2023-07-29T12:00:22;99314.73;;;26.90;100.00
60611;BME280;46439;51.164;13.572;2023-07-29T12:02:51;99316.98;;;26.88;100.00
60611;BME280;46439;51.164;13.572;2023-07-29T12:05:21;99319.16;;;26.86;100.00
60611;BME280;46439;51.164;13.572;2023-07-29T12:07:51;99321.60;;;26.86;100.00
60611;BME280;46439;51.164;13.572;2023-07-29T12:10:20;99315.67;;;26.86;100.00
60611;BME280;46439;51.164;13.572;2023-07-29T12:12:50;99315.54;;;26.88;100.00
60611;BME280;46439;51.164;13.572;2023-07-29T12:15:27;99314.96;;;26.92;100.00
60611;BME280;46439;51.164;13.572;2023-07-29T12:17:57;99313.42;;;26.95;100.00
60611;BME280;46439;51.164;13.572;2023-07-29T12:20:26;99311.48;;;27.01;100.00
60611;BME280;46439;51.164;13.572;2023-07-29T12:22:59;99305.13;;;27.03;100.00
60611;BME280;46439;51.164;13.572;2023-07-29T12:25:30;99301.85;;;27.04;100.00
60611;BME280;46439;51.164;13.572;2023-07-29T12:28:04;99298.09;;;27.07;100.00
60611;BME280;46439;51.164;13.572;2023-07-29T12:30:33;99295.70;;;27.07;100.00
60611;BME280;46439;51.164;13.572;2023-07-29T12:33:01;99293.61;;;27.09;100.00
60611;BME280;46439;51.164;13.572;2023-07-29T12:35:37;99292.85;;;27.03;100.00
60611;BME280;46439;51.164;13.572;2023-07-29T12:38:06;99287.08;;;27.03;100.00
60611;BME280;46439;51.164;13.572;2023-07-29T12:40:39;99286.02;;;27.24;100.00
60611;BME280;46439;51.164;13.572;2023-07-29T12:43:08;99286.19;;;27.37;100.00
60611;BME280;46439;51.164;13.572;2023-07-29T12:45:40;99282.31;;;27.32;100.00
60611;BME280;46439;51.164;13.572;2023-07-29T12:48:10;99284.46;;;27.37;100.00
60611;BME280;46439;51.164;13.572;2023-07-29T12:50:39;99281.48;;;27.37;100.00
60611;BME280;46439;51.164;13.572;2023-07-29T12:53:08;99281.13;;;27.32;100.00
60611;BME280;46439;51.164;13.572;2023-07-29T12:55:40;99280.73;;;27.27;100.00
60611;BME280;46439;51.164;13.572;2023-07-29T12:58:09;99275.45;;;27.21;100.00
60611;BME280;46439;51.164;13.572;2023-07-29T13:00:37;99273.37;;;27.16;100.00